Time;durP1;ratioP1;P1;durP2;ratioP2;P2;SDS_P1;SDS_P2;PMS_P1;PMS_P2;Temp;Humidity;BMP_temperature;BMP_pressure;BME280_temperature;BME280_humidity;BME280_pressure;Samples;Min_cycle;Max_cycle;Signal;HPM_P1;HPM_P2
2022/01/30 00:14:38;;;;;;;4.60;2.77;;;;;;;0.05;94.34;100205.88;30962811;28;20385;-76
2022/01/30 00:29:42;;;;;;;4.47;2.93;;;;;;;-0.13;93.73;100167.31;30924314;28;20113;-77
2022/01/30 00:44:44;;;;;;;7.50;3.50;;;;;;;-0.11;94.03;100159.75;30970660;28;20047;-74
2022/01/30 00:59:45;;;;;;;6.17;3.43;;;;;;;-0.21;92.60;100138.91;30924173;28;20487;-75
2022/01/30 01:30:27;;;;;;;4.40;2.73;;;;;;;-0.38;91.34;100108.78;30891796;28;20050;-77
2022/01/30 01:45:35;;;;;;;4.50;2.80;;;;;;;-0.50;91.15;100098.22;30969472;28;20053;-76
2022/01/30 02:00:37;;;;;;;11.97;5.00;;;;;;;-0.43;89.87;100085.03;30970339;28;20056;-76
2022/01/30 02:23:57;;;;;;;11.63;4.53;;;;;;;-0.52;89.47;100060.44;30978104;28;20447;-75
2022/01/30 02:31:10;;;;;;;12.90;5.30;;;;;;;-0.63;88.84;100043.41;30925893;28;20550;-76
2022/01/30 02:46:25;;;;;;;5.73;3.93;;;;;;;-0.53;85.88;100024.25;30953158;28;20047;-76
2022/01/30 03:01:27;;;;;;;7.90;3.93;;;;;;;-0.45;85.55;99985.94;30946809;28;20062;-74
2022/01/30 03:16:30;;;;;;;9.43;4.43;;;;;;;-0.30;82.91;99959.59;30957932;28;20061;-75
2022/01/30 03:31:40;;;;;;;8.77;3.90;;;;;;;-0.38;82.57;99938.09;30934277;28;20057;-77
2022/01/30 03:46:43;;;;;;;4.53;3.13;;;;;;;-0.57;81.61;99914.06;30943400;28;20484;-75
2022/01/30 04:01:56;;;;;;;5.30;3.27;;;;;;;-0.65;85.82;99912.34;30966718;28;20133;-75
2022/01/30 04:16:59;;;;;;;4.47;2.47;;;;;;;-0.78;88.42;99882.38;30956586;28;20054;-75
2022/01/30 04:32:02;;;;;;;5.87;2.60;;;;;;;-1.18;91.98;99882.56;30907559;28;20066;-76
2022/01/30 05:02:46;;;;;;;5.70;2.87;;;;;;;-1.83;94.64;99870.66;30975642;28;20054;-77
2022/01/30 05:17:48;;;;;;;8.50;3.20;;;;;;;-1.98;93.98;99879.41;30962696;28;20508;-75
2022/01/30 05:32:50;;;;;;;5.13;4.10;;;;;;;-2.06;93.06;99867.78;30966445;28;20140;-76
2022/01/30 05:47:58;;;;;;;8.00;4.23;;;;;;;-1.55;90.73;99846.66;30988007;28;20063;-76
2022/01/30 06:03:00;;;;;;;3.30;2.47;;;;;;;-0.13;86.84;99837.22;30971409;28;20050;-75
2022/01/30 06:18:04;;;;;;;18.20;8.20;;;;;;;0.93;82.79;99810.75;30952542;28;20142;-74
2022/01/30 06:33:06;;;;;;;4.37;3.43;;;;;;;1.54;77.22;99780.97;30955671;28;20117;-75
2022/01/30 06:48:08;;;;;;;7.97;4.43;;;;;;;2.84;73.61;99728.13;30956858;28;20166;-74
2022/01/30 07:03:10;;;;;;;14.17;7.43;;;;;;;1.50;74.79;99718.63;30974290;28;20053;-76
2022/01/30 07:18:13;;;;;;;9.73;6.00;;;;;;;-0.24;82.81;99708.22;30969051;28;20089;-77
2022/01/30 07:33:14;;;;;;;13.40;7.43;;;;;;;-0.47;85.42;99673.50;30912506;28;20070;-76
2022/01/30 07:48:16;;;;;;;4.23;2.90;;;;;;;-0.54;86.59;99669.94;30945723;28;20149;-77
2022/01/30 08:03:18;;;;;;;9.70;4.83;;;;;;;-0.70;87.34;99611.38;30953493;28;20043;-77
2022/01/30 08:18:20;;;;;;;5.17;3.50;;;;;;;-0.80;88.24;99591.44;30947834;28;20053;-76
2022/01/30 08:33:22;;;;;;;4.17;3.13;;;;;;;-0.36;89.78;99591.78;30961973;28;20093;-76
2022/01/30 08:48:24;;;;;;;6.67;3.70;;;;;;;-0.26;92.67;99528.31;30955995;28;20057;-74
2022/01/30 09:03:26;;;;;;;5.47;3.13;;;;;;;-0.17;95.00;99494.13;30970114;28;20061;-76
2022/01/30 09:18:29;;;;;;;13.30;5.40;;;;;;;0.53;94.29;99456.06;30965257;28;20488;-77
2022/01/30 09:33:31;;;;;;;10.10;6.03;;;;;;;0.72;94.68;99421.13;30946849;28;20949;-76
2022/01/30 09:48:38;;;;;;;14.87;7.10;;;;;;;0.89;95.12;99401.81;30944574;28;20061;-77
2022/01/30 10:03:40;;;;;;;9.67;5.53;;;;;;;1.17;95.46;99366.53;30957084;28;20050;-78
2022/01/30 10:18:44;;;;;;;11.93;5.60;;;;;;;1.29;94.94;99346.72;30974947;28;20058;-74
2022/01/30 10:33:49;;;;;;;12.63;5.27;;;;;;;1.26;95.68;99302.78;30958781;28;20089;-76
2022/01/30 10:49:03;;;;;;;9.23;5.57;;;;;;;1.26;97.24;99276.03;30949238;28;20133;-81
2022/01/30 11:04:05;;;;;;;11.03;6.57;;;;;;;1.19;99.55;99267.19;30946185;28;20053;-75
2022/01/30 11:19:08;;;;;;;5.20;3.60;;;;;;;1.36;100.00;99223.75;30943160;28;20142;-73
2022/01/30 11:34:10;;;;;;;5.47;3.70;;;;;;;1.53;100.00;99206.22;30951484;28;20064;-72
2022/01/30 11:49:14;;;;;;;11.70;4.43;;;;;;;1.83;99.46;99187.16;30956060;28;20050;-77
2022/01/30 12:04:16;;;;;;;6.90;4.43;;;;;;;2.13;92.19;99163.41;30956429;28;20142;-75
2022/01/30 12:19:30;;;;;;;6.43;4.00;;;;;;;2.67;88.50;99131.94;30941595;28;20120;-76
2022/01/30 12:34:32;;;;;;;8.27;3.73;;;;;;;2.54;89.14;99123.56;30931851;28;20088;-76
2022/01/30 12:49:42;;;;;;;8.30;4.43;;;;;;;2.16;86.12;99079.66;30949264;28;20872;-79
2022/01/30 13:04:44;;;;;;;7.60;3.70;;;;;;;1.73;91.34;99102.28;30946748;28;23055;-77
2022/01/30 13:19:46;;;;;;;11.73;4.67;;;;;;;1.27;99.71;99113.69;30945886;28;20062;-75
2022/01/30 13:34:49;;;;;;;1.93;1.70;;;;;;;0.69;100.00;99053.25;31009479;28;20085;-78
2022/01/30 13:49:51;;;;;;;3.40;1.83;;;;;;;0.70;100.00;99054.78;30980900;28;20051;-76
2022/01/30 14:04:53;;;;;;;5.10;2.53;;;;;;;0.61;100.00;99057.03;30980620;28;20085;-75
2022/01/30 14:20:06;;;;;;;3.27;2.60;;;;;;;0.50;100.00;99029.50;30947270;28;20089;-77
2022/01/30 14:35:10;;;;;;;10.37;3.93;;;;;;;0.42;100.00;99019.97;30953163;28;20047;-78
2022/01/30 14:50:14;;;;;;;5.57;3.70;;;;;;;0.43;100.00;99019.59;30980576;28;20054;-75
2022/01/30 15:05:16;;;;;;;7.83;4.57;;;;;;;0.42;100.00;99023.38;30965211;28;20053;-75
2022/01/30 15:20:18;;;;;;;4.60;3.47;;;;;;;0.36;100.00;99021.44;30960749;28;20059;-77
2022/01/30 15:35:20;;;;;;;7.07;3.63;;;;;;;0.39;100.00;99018.03;31004402;28;20078;-77
2022/01/30 15:50:25;;;;;;;8.53;4.13;;;;;;;0.34;100.00;99016.47;31003034;28;20053;-77
2022/01/30 16:05:27;;;;;;;7.53;4.50;;;;;;;0.30;100.00;99019.13;30972300;28;20050;-75
2022/01/30 16:20:29;;;;;;;8.70;4.80;;;;;;;0.26;100.00;99021.03;30925910;28;20066;-74
2022/01/30 16:35:34;;;;;;;11.20;4.83;;;;;;;0.30;100.00;98979.09;30959766;28;20054;-76
2022/01/30 16:50:36;;;;;;;11.13;4.53;;;;;;;0.20;100.00;98973.72;30948721;28;20046;-76
2022/01/30 17:05:39;;;;;;;7.10;4.30;;;;;;;0.23;100.00;98979.09;30973266;28;20078;-75
2022/01/30 17:20:43;;;;;;;8.20;4.33;;;;;;;0.25;100.00;98970.69;30965640;28;20085;-75
2022/01/30 17:35:53;;;;;;;8.87;4.57;;;;;;;0.25;100.00;98987.47;30972198;28;20050;-76
2022/01/30 17:50:55;;;;;;;6.87;4.20;;;;;;;0.29;100.00;99004.25;30966036;28;20061;-75
2022/01/30 18:05:57;;;;;;;8.87;5.00;;;;;;;0.23;100.00;99016.47;30976378;28;20142;-74
2022/01/30 18:20:59;;;;;;;9.20;6.00;;;;;;;0.23;100.00;99003.13;30936783;28;20161;-77
2022/01/30 18:36:06;;;;;;;9.90;6.00;;;;;;;0.24;100.00;99004.63;30972337;28;20576;-75
2022/01/30 18:51:08;;;;;;;14.30;6.67;;;;;;;0.24;100.00;98996.59;30921990;28;20133;-76
2022/01/30 19:06:10;;;;;;;9.80;5.93;;;;;;;0.24;100.00;98985.94;30989544;28;20539;-76
2022/01/30 19:21:12;;;;;;;15.03;7.40;;;;;;;0.27;100.00;98985.19;30982521;28;20081;-76
2022/01/30 19:36:15;;;;;;;9.77;6.20;;;;;;;0.31;100.00;98964.59;30948224;28;20101;-75
2022/01/30 19:51:17;;;;;;;8.80;5.47;;;;;;;0.33;100.00;98954.31;30957954;28;20570;-76
2022/01/30 20:06:19;;;;;;;8.67;5.23;;;;;;;0.34;100.00;98963.84;30934121;28;20474;-75
2022/01/30 20:21:21;;;;;;;9.17;5.10;;;;;;;0.35;100.00;98959.28;30973802;28;20141;-78
2022/01/30 20:36:26;;;;;;;10.27;5.90;;;;;;;0.34;100.00;98947.84;30951619;28;20053;-77
2022/01/30 20:51:28;;;;;;;8.63;4.63;;;;;;;0.26;100.00;98929.50;30956605;28;20060;-77
2022/01/30 21:06:29;;;;;;;15.60;6.43;;;;;;;0.33;100.00;98946.31;30971121;28;20061;-77
2022/01/30 21:21:31;;;;;;;11.63;5.93;;;;;;;0.34;100.00;98937.16;30976396;28;20053;-77
2022/01/30 21:36:35;;;;;;;15.50;6.67;;;;;;;0.36;100.00;98928.00;30954375;28;20133;-77
2022/01/30 21:51:37;;;;;;;13.87;7.47;;;;;;;0.31;100.00;98927.22;31011606;28;20054;-77
2022/01/30 22:06:39;;;;;;;14.10;6.90;;;;;;;0.22;100.00;98929.50;30980999;28;20054;-76
2022/01/30 22:21:41;;;;;;;11.77;6.23;;;;;;;0.22;100.00;98939.44;30999282;28;20089;-77
2022/01/30 22:36:43;;;;;;;10.30;5.73;;;;;;;0.10;100.00;98931.75;30948216;28;20050;-75
2022/01/30 22:51:45;;;;;;;15.60;7.17;;;;;;;0.06;100.00;98952.31;30944756;28;20141;-76
2022/01/30 23:06:46;;;;;;;13.67;6.57;;;;;;;-0.10;100.00;98931.28;30936892;28;20407;-76
2022/01/30 23:21:49;;;;;;;7.53;4.37;;;;;;;-0.14;100.00;98911.84;30954768;28;20480;-75
2022/01/30 23:36:51;;;;;;;19.90;10.00;;;;;;;-0.25;100.00;98900.38;30929973;28;20567;-76
2022/01/30 23:51:53;;;;;;;8.43;4.60;;;;;;;-0.37;100.00;98920.09;30952009;28;20053;-76
